This is the latest recevied weather packets stored in our database for station/object KB0OLA. If no packets are shown the sender has not sent any weather packets the latest 10 day(s).
| Time | Temp. | Humidity | Pressure | Rain* | Wind** | Luminosity | Snow |
|---|---|---|---|---|---|---|---|
| 1777557318 | 3.33° C | 73% | 1019.8 hPa | 0 mm | - | - | - |
| 1777552518 | 2.22° C | 68% | 1019.3 hPa | 0 mm | - | - | - |
| 1777550718 | 2.78° C | 64% | 1019.2 hPa | 0 mm | - | - | - |
| 1777550118 | 2.78° C | 63% | 1019.1 hPa | 0 mm | - | - | - |
| 1777544117 | 6.11° C | 52% | 1019.3 hPa | 0 mm | - | - | - |
| 1777539317 | 7.22° C | 48% | 1019.3 hPa | 0 mm | - | - | - |
| 1777538717 | 8.33° C | 46% | 1019.3 hPa | 0 mm | - | - | - |
| 1777538117 | 8.89° C | 44% | 1019.3 hPa | 0 mm | - | - | - |
| 1777534517 | 8.89° C | 43% | 1019.4 hPa | 0 mm | - | - | - |
| 1777530317 | 8.89° C | 45% | 1019.6 hPa | 0 mm | - | - | - |
| 1777529717 | 8.89° C | 45% | 1019.5 hPa | 0 mm | - | - | - |
| 1777523117 | 7.22° C | 52% | 1019.5 hPa | 0 mm | - | - | - |
| 1777514718 | 12.22° C | 36% | 1018.7 hPa | 0 mm | - | - | - |
| 1777512918 | 12.78° C | 36% | 1018.7 hPa | 0 mm | - | - | - |
| 1777511718 | 13.33° C | 36% | 1018.9 hPa | 0 mm | - | - | - |
| 1777509918 | 13.89° C | 33% | 1018.9 hPa | 0 mm | - | - | - |
| 1777508718 | 13.89° C | 32% | 1018.9 hPa | 0 mm | - | - | - |
| 1777506318 | 13.89° C | 35% | 1019 hPa | 0 mm | - | - | - |
| 1777505718 | 13.89° C | 36% | 1019.1 hPa | 0 mm | - | - | - |
| 1777504518 | 13.89° C | 34% | 1019 hPa | 0 mm | - | - | - |
| 1777503938 | 14.44° C | 34% | 1019 hPa | 0 mm | - | - | - |
| 1777502718 | 15° C | 36% | 1019.1 hPa | 0 mm | - | - | - |
| 1777500918 | 16.11° C | 33% | 1019.2 hPa | 0 mm | - | - | - |
| 1777497917 | 15.56° C | 28% | 1019.5 hPa | 0 mm | - | - | - |
| 1777497317 | 16.11° C | 26% | 1019.5 hPa | 0 mm | - | - | - |
* Rain latest hour (hover to see other rain measurements)
** Current wind speed in m/s (hover to see current wind gust speed)